Shalimar, FL (32579)

4:27 AM CST on December 03, 2016 (GMT -0600)
APRSWXNET | | Change Station

Elev 16 ft 30.43 °N, 86.58 °W | Updated 22 minutes ago

Mostly Cloudy
Mostly Cloudy
56 °F
Feels Like 56 °F
N
11
Wind Variable Wind from ENE
Gusts 15.0 mph

Today
High -- | Low -- °F
--% Chance of Precip.
Yesterday
High -- | Low -- °F
Precip. -- in
Pressure 30.22 in
Visibility 10.0 miles
Clouds Mostly Cloudy 15000 ft
Dew Point 38 °F
Humidity 50%
Rainfall in
Snow Depth Not available.
6:27 AM 4:45 PM
Waxing Crescent, 14% visible
METAR KVPS 030955Z 07005KT 10SM BKN150 13/01 A3020 RMK AO2A SLP233 T01300009 $
Pressure 30.22 in
Visibility 10.0 miles
Clouds Mostly Cloudy 15000 ft
Dew Point 38 °F
Humidity 50%
Rainfall in
Snow Depth Not available.
6:27 AM 4:45 PM
Waxing Crescent, 14% visible
METAR KVPS 030955Z 07005KT 10SM BKN150 13/01 A3020 RMK AO2A SLP233 T01300009 $

10-Day Weather Forecast

Almanac

Astronomy

Dec. 03, 2016 Rise Set
Actual Time
Civil Twilight
Nautical Twilight
Astronomical Twilight
Moon
Length of Visible Light
Length of Day
Tomorrow will be .
, % of the Moon is Illuminated

Today's Extremes

State Highs State Lows

Community

WunderPhotos

Upload Photos

1,955,434 photos uploaded!

WunderBlog® & News

Nearby

Air Quality

  Air Quality AQ Index Pollutant
Not available.

Snow Depth

Station Depth Elevation

Earthquake Activity

City Distance Mag. Time & Date
Minimum magnitude displayed is 2.5.

Coastal Water Temperatures

Place Temperature

Stations

Nearby Weather Stations

Station Location Temp. Windchill Dew Point Humidity Wind Precip. Elev Updated Type
                   

Watches & Warnings

There are currently no watches in effect.